aviador You're here:

KMVH Decoded Metar

in
Report Time2017-08-22 16:20:00
UTC Time2017-08-22 16:38:30
Flight Rules vfr VFR
Wind100° at 09 kt
W.Rank100° ranks 14
Current wind is above 100° avg. (6.7)
Visibility9999 m
Phenomena:N/A
Clouds:N/A
Expected CloudBase > 9,600 ft AGL from Temp-Dew spread
CeilingNone
Temp24°C
Dew Point00°C (21% RH)
AAT18.8°C
QNH1024 hPa
Raw Report
KMVH 221620Z AUTO 10009KT 10SM CLR 24/M00 A3024 RMK AO2=

Extra information for KMVH:More info

Social comments